sensor_id;sensor_type;location;lat;lon;timestamp;temperature;humidity
57552;DHT22;43379;48.160;14.036;2023-04-15T00:02:00;7.90;99.90
57552;DHT22;43379;48.160;14.036;2023-04-15T00:04:26;7.90;99.90
57552;DHT22;43379;48.160;14.036;2023-04-15T00:06:52;7.90;99.90
57552;DHT22;43379;48.160;14.036;2023-04-15T00:09:19;7.80;99.90
57552;DHT22;43379;48.160;14.036;2023-04-15T00:11:45;7.90;99.90
57552;DHT22;43379;48.160;14.036;2023-04-15T00:14:12;7.90;99.90
57552;DHT22;43379;48.160;14.036;2023-04-15T00:16:38;7.90;99.90
57552;DHT22;43379;48.160;14.036;2023-04-15T00:19:03;8.00;99.90
57552;DHT22;43379;48.160;14.036;2023-04-15T00:21:29;7.90;99.90
57552;DHT22;43379;48.160;14.036;2023-04-15T00:23:55;7.90;99.90
57552;DHT22;43379;48.160;14.036;2023-04-15T00:26:21;7.90;99.90
57552;DHT22;43379;48.160;14.036;2023-04-15T00:28:46;8.00;99.90
57552;DHT22;43379;48.160;14.036;2023-04-15T00:31:12;7.90;99.90
57552;DHT22;43379;48.160;14.036;2023-04-15T00:33:38;7.90;99.90
57552;DHT22;43379;48.160;14.036;2023-04-15T00:36:05;7.90;99.90
57552;DHT22;43379;48.160;14.036;2023-04-15T00:38:31;8.00;99.90
57552;DHT22;43379;48.160;14.036;2023-04-15T00:40:58;7.90;99.90
57552;DHT22;43379;48.160;14.036;2023-04-15T00:43:24;7.90;99.90
57552;DHT22;43379;48.160;14.036;2023-04-15T00:45:51;7.90;99.90
57552;DHT22;43379;48.160;14.036;2023-04-15T00:48:18;7.90;99.90
57552;DHT22;43379;48.160;14.036;2023-04-15T00:50:44;7.90;99.90
57552;DHT22;43379;48.160;14.036;2023-04-15T00:53:10;7.90;99.90
57552;DHT22;43379;48.160;14.036;2023-04-15T00:55:37;7.90;99.90
57552;DHT22;43379;48.160;14.036;2023-04-15T00:58:02;7.90;99.90
57552;DHT22;43379;48.160;14.036;2023-04-15T01:00:28;7.90;99.90
57552;DHT22;43379;48.160;14.036;2023-04-15T01:02:54;7.90;99.90
57552;DHT22;43379;48.160;14.036;2023-04-15T01:05:20;7.90;99.90
57552;DHT22;43379;48.160;14.036;2023-04-15T01:07:46;7.90;99.90
57552;DHT22;43379;48.160;14.036;2023-04-15T01:10:12;7.90;99.90
57552;DHT22;43379;48.160;14.036;2023-04-15T01:12:38;7.80;99.90
57552;DHT22;43379;48.160;14.036;2023-04-15T01:15:05;7.90;99.90
57552;DHT22;43379;48.160;14.036;2023-04-15T01:17:31;7.90;99.90
57552;DHT22;43379;48.160;14.036;2023-04-15T01:19:57;7.90;99.90
57552;DHT22;43379;48.160;14.036;2023-04-15T01:22:23;7.90;99.90
57552;DHT22;43379;48.160;14.036;2023-04-15T01:27:47;7.80;99.90
57552;DHT22;43379;48.160;14.036;2023-04-15T01:30:13;7.90;99.90
57552;DHT22;43379;48.160;14.036;2023-04-15T01:32:38;7.80;99.90
57552;DHT22;43379;48.160;14.036;2023-04-15T01:35:04;7.80;99.90
57552;DHT22;43379;48.160;14.036;2023-04-15T01:37:30;7.80;99.90
57552;DHT22;43379;48.160;14.036;2023-04-15T01:39:56;7.80;99.90
57552;DHT22;43379;48.160;14.036;2023-04-15T01:42:22;7.80;99.90
57552;DHT22;43379;48.160;14.036;2023-04-15T01:44:48;7.80;99.90
57552;DHT22;43379;48.160;14.036;2023-04-15T01:47:14;7.80;99.90
57552;DHT22;43379;48.160;14.036;2023-04-15T01:49:40;7.80;99.90
57552;DHT22;43379;48.160;14.036;2023-04-15T01:52:06;7.80;99.90
57552;DHT22;43379;48.160;14.036;2023-04-15T01:54:32;7.80;99.90
57552;DHT22;43379;48.160;14.036;2023-04-15T01:56:57;7.80;99.90
57552;DHT22;43379;48.160;14.036;2023-04-15T01:59:23;7.70;99.90
57552;DHT22;43379;48.160;14.036;2023-04-15T02:01:49;7.80;99.90
57552;DHT22;43379;48.160;14.036;2023-04-15T02:04:15;7.70;99.90
57552;DHT22;43379;48.160;14.036;2023-04-15T02:06:44;7.70;99.90
57552;DHT22;43379;48.160;14.036;2023-04-15T02:09:11;7.70;99.90
57552;DHT22;43379;48.160;14.036;2023-04-15T02:11:36;7.70;99.90
57552;DHT22;43379;48.160;14.036;2023-04-15T02:14:03;7.70;99.90
57552;DHT22;43379;48.160;14.036;2023-04-15T02:16:30;7.70;99.90
57552;DHT22;43379;48.160;14.036;2023-04-15T02:18:56;7.70;99.90
57552;DHT22;43379;48.160;14.036;2023-04-15T02:21:22;7.70;99.90
57552;DHT22;43379;48.160;14.036;2023-04-15T02:23:48;7.70;99.90
57552;DHT22;43379;48.160;14.036;2023-04-15T02:26:13;7.70;99.90
57552;DHT22;43379;48.160;14.036;2023-04-15T02:28:39;7.70;99.90
57552;DHT22;43379;48.160;14.036;2023-04-15T02:31:06;7.70;99.90
57552;DHT22;43379;48.160;14.036;2023-04-15T02:33:32;7.70;99.90
57552;DHT22;43379;48.160;14.036;2023-04-15T02:35:58;7.70;99.90
57552;DHT22;43379;48.160;14.036;2023-04-15T02:38:24;7.70;99.90
57552;DHT22;43379;48.160;14.036;2023-04-15T02:40:49;7.70;99.90
57552;DHT22;43379;48.160;14.036;2023-04-15T02:43:16;7.60;99.90
57552;DHT22;43379;48.160;14.036;2023-04-15T02:45:42;7.70;99.90
57552;DHT22;43379;48.160;14.036;2023-04-15T02:48:08;7.60;99.90
57552;DHT22;43379;48.160;14.036;2023-04-15T02:50:34;7.70;99.90
57552;DHT22;43379;48.160;14.036;2023-04-15T02:53:00;7.60;99.90
57552;DHT22;43379;48.160;14.036;2023-04-15T02:55:27;7.60;99.90
57552;DHT22;43379;48.160;14.036;2023-04-15T02:57:53;7.70;99.90
57552;DHT22;43379;48.160;14.036;2023-04-15T03:00:18;7.70;99.90
57552;DHT22;43379;48.160;14.036;2023-04-15T03:02:45;7.60;99.90
57552;DHT22;43379;48.160;14.036;2023-04-15T03:05:14;7.60;99.90
57552;DHT22;43379;48.160;14.036;2023-04-15T03:07:40;7.60;99.90
57552;DHT22;43379;48.160;14.036;2023-04-15T03:10:06;7.60;99.90
57552;DHT22;43379;48.160;14.036;2023-04-15T03:12:32;7.50;99.90
57552;DHT22;43379;48.160;14.036;2023-04-15T03:14:58;7.50;99.90
57552;DHT22;43379;48.160;14.036;2023-04-15T03:17:24;7.50;99.90
57552;DHT22;43379;48.160;14.036;2023-04-15T03:19:50;7.60;99.90
57552;DHT22;43379;48.160;14.036;2023-04-15T03:22:16;7.50;99.90
57552;DHT22;43379;48.160;14.036;2023-04-15T03:24:41;7.50;99.90
57552;DHT22;43379;48.160;14.036;2023-04-15T03:27:07;7.50;99.90
57552;DHT22;43379;48.160;14.036;2023-04-15T03:29:33;7.50;99.90
57552;DHT22;43379;48.160;14.036;2023-04-15T03:31:59;7.50;99.90
57552;DHT22;43379;48.160;14.036;2023-04-15T03:34:25;7.50;99.90
57552;DHT22;43379;48.160;14.036;2023-04-15T03:36:50;7.50;99.90
57552;DHT22;43379;48.160;14.036;2023-04-15T03:39:16;7.60;99.90
57552;DHT22;43379;48.160;14.036;2023-04-15T03:41:42;7.50;99.90
57552;DHT22;43379;48.160;14.036;2023-04-15T03:44:07;7.50;99.90
57552;DHT22;43379;48.160;14.036;2023-04-15T03:46:33;7.60;99.90
57552;DHT22;43379;48.160;14.036;2023-04-15T03:48:59;7.60;99.90
57552;DHT22;43379;48.160;14.036;2023-04-15T03:51:24;7.60;99.90
57552;DHT22;43379;48.160;14.036;2023-04-15T03:53:50;7.70;99.90
57552;DHT22;43379;48.160;14.036;2023-04-15T03:56:16;7.70;99.90
57552;DHT22;43379;48.160;14.036;2023-04-15T03:58:42;7.60;99.90
57552;DHT22;43379;48.160;14.036;2023-04-15T04:01:08;7.60;99.90
57552;DHT22;43379;48.160;14.036;2023-04-15T04:03:34;7.50;99.90
57552;DHT22;43379;48.160;14.036;2023-04-15T04:05:59;7.60;99.90
57552;DHT22;43379;48.160;14.036;2023-04-15T04:08:25;7.60;99.90
57552;DHT22;43379;48.160;14.036;2023-04-15T04:10:51;7.60;99.90
57552;DHT22;43379;48.160;14.036;2023-04-15T04:13:17;7.50;99.90
57552;DHT22;43379;48.160;14.036;2023-04-15T04:15:43;7.50;99.90
57552;DHT22;43379;48.160;14.036;2023-04-15T04:18:08;7.50;99.90
57552;DHT22;43379;48.160;14.036;2023-04-15T04:20:34;7.50;99.90
57552;DHT22;43379;48.160;14.036;2023-04-15T04:23:00;7.50;99.90
57552;DHT22;43379;48.160;14.036;2023-04-15T04:25:25;7.50;99.90
57552;DHT22;43379;48.160;14.036;2023-04-15T04:27:51;7.50;99.90
57552;DHT22;43379;48.160;14.036;2023-04-15T04:30:17;7.50;99.90
57552;DHT22;43379;48.160;14.036;2023-04-15T04:32:43;7.40;99.90
57552;DHT22;43379;48.160;14.036;2023-04-15T04:35:08;7.40;99.90
57552;DHT22;43379;48.160;14.036;2023-04-15T04:37:34;7.30;99.90
57552;DHT22;43379;48.160;14.036;2023-04-15T04:39:59;7.30;99.90
57552;DHT22;43379;48.160;14.036;2023-04-15T04:42:25;7.20;99.90
57552;DHT22;43379;48.160;14.036;2023-04-15T04:44:51;7.30;99.90
57552;DHT22;43379;48.160;14.036;2023-04-15T04:47:16;7.20;99.90
57552;DHT22;43379;48.160;14.036;2023-04-15T04:49:42;7.20;99.90
57552;DHT22;43379;48.160;14.036;2023-04-15T04:52:08;7.30;99.90
57552;DHT22;43379;48.160;14.036;2023-04-15T04:54:34;7.20;99.90
57552;DHT22;43379;48.160;14.036;2023-04-15T04:57:00;7.20;99.90
57552;DHT22;43379;48.160;14.036;2023-04-15T04:59:26;7.20;99.90
57552;DHT22;43379;48.160;14.036;2023-04-15T05:01:52;7.20;99.90
57552;DHT22;43379;48.160;14.036;2023-04-15T05:04:17;7.20;99.90
57552;DHT22;43379;48.160;14.036;2023-04-15T05:06:43;7.10;99.90
57552;DHT22;43379;48.160;14.036;2023-04-15T05:09:08;7.20;99.90
57552;DHT22;43379;48.160;14.036;2023-04-15T05:11:34;7.20;99.90
57552;DHT22;43379;48.160;14.036;2023-04-15T05:14:00;7.30;99.90
57552;DHT22;43379;48.160;14.036;2023-04-15T05:16:26;7.30;99.90
57552;DHT22;43379;48.160;14.036;2023-04-15T05:18:52;7.30;99.90
57552;DHT22;43379;48.160;14.036;2023-04-15T05:21:18;7.30;99.90
57552;DHT22;43379;48.160;14.036;2023-04-15T05:23:44;7.40;99.90
57552;DHT22;43379;48.160;14.036;2023-04-15T05:26:10;7.40;99.90
57552;DHT22;43379;48.160;14.036;2023-04-15T05:28:36;7.40;99.90
57552;DHT22;43379;48.160;14.036;2023-04-15T05:31:02;7.50;99.90
57552;DHT22;43379;48.160;14.036;2023-04-15T05:33:28;7.50;99.90
57552;DHT22;43379;48.160;14.036;2023-04-15T05:35:54;7.50;99.90
57552;DHT22;43379;48.160;14.036;2023-04-15T05:38:20;7.50;99.90
57552;DHT22;43379;48.160;14.036;2023-04-15T05:40:45;7.50;99.90
57552;DHT22;43379;48.160;14.036;2023-04-15T05:43:11;7.50;99.90
57552;DHT22;43379;48.160;14.036;2023-04-15T05:45:37;7.50;99.90
57552;DHT22;43379;48.160;14.036;2023-04-15T05:48:02;7.60;99.90
57552;DHT22;43379;48.160;14.036;2023-04-15T05:50:28;7.60;99.90
57552;DHT22;43379;48.160;14.036;2023-04-15T05:52:54;7.60;99.90
57552;DHT22;43379;48.160;14.036;2023-04-15T05:55:20;7.60;99.90
57552;DHT22;43379;48.160;14.036;2023-04-15T05:57:46;7.60;99.90
57552;DHT22;43379;48.160;14.036;2023-04-15T06:00:12;7.60;99.90
57552;DHT22;43379;48.160;14.036;2023-04-15T06:02:38;7.60;99.90
57552;DHT22;43379;48.160;14.036;2023-04-15T06:05:04;7.60;99.90
57552;DHT22;43379;48.160;14.036;2023-04-15T06:07:34;7.60;99.90
57552;DHT22;43379;48.160;14.036;2023-04-15T06:10:02;7.60;99.90
57552;DHT22;43379;48.160;14.036;2023-04-15T06:12:28;7.60;99.90
57552;DHT22;43379;48.160;14.036;2023-04-15T06:14:54;7.60;99.90
57552;DHT22;43379;48.160;14.036;2023-04-15T06:17:19;7.60;99.90
57552;DHT22;43379;48.160;14.036;2023-04-15T06:19:45;7.60;99.90
57552;DHT22;43379;48.160;14.036;2023-04-15T06:22:11;7.60;99.90
57552;DHT22;43379;48.160;14.036;2023-04-15T06:24:36;7.60;99.90
57552;DHT22;43379;48.160;14.036;2023-04-15T06:27:02;7.60;99.90
57552;DHT22;43379;48.160;14.036;2023-04-15T06:29:28;7.60;99.90
57552;DHT22;43379;48.160;14.036;2023-04-15T06:31:53;7.60;99.90
57552;DHT22;43379;48.160;14.036;2023-04-15T06:34:21;7.60;99.90
57552;DHT22;43379;48.160;14.036;2023-04-15T06:36:46;7.60;99.90
57552;DHT22;43379;48.160;14.036;2023-04-15T06:39:12;7.60;99.90
57552;DHT22;43379;48.160;14.036;2023-04-15T06:41:38;7.60;99.90
57552;DHT22;43379;48.160;14.036;2023-04-15T06:44:04;7.70;99.90
57552;DHT22;43379;48.160;14.036;2023-04-15T06:46:30;7.70;99.90
57552;DHT22;43379;48.160;14.036;2023-04-15T06:48:55;7.70;99.90
57552;DHT22;43379;48.160;14.036;2023-04-15T06:51:21;7.60;99.90
57552;DHT22;43379;48.160;14.036;2023-04-15T06:53:48;7.60;99.90
57552;DHT22;43379;48.160;14.036;2023-04-15T06:56:13;7.60;99.90
57552;DHT22;43379;48.160;14.036;2023-04-15T06:58:39;7.70;99.90
57552;DHT22;43379;48.160;14.036;2023-04-15T07:01:05;7.70;99.90
57552;DHT22;43379;48.160;14.036;2023-04-15T07:03:31;7.70;99.90
57552;DHT22;43379;48.160;14.036;2023-04-15T07:05:56;7.70;99.90
57552;DHT22;43379;48.160;14.036;2023-04-15T07:08:23;7.70;99.90
57552;DHT22;43379;48.160;14.036;2023-04-15T07:10:48;7.60;99.90
57552;DHT22;43379;48.160;14.036;2023-04-15T07:13:14;7.60;99.90
57552;DHT22;43379;48.160;14.036;2023-04-15T07:15:40;7.60;99.90
57552;DHT22;43379;48.160;14.036;2023-04-15T07:18:06;7.60;99.90
57552;DHT22;43379;48.160;14.036;2023-04-15T07:20:31;7.60;99.90
57552;DHT22;43379;48.160;14.036;2023-04-15T07:22:57;7.50;99.90
57552;DHT22;43379;48.160;14.036;2023-04-15T07:25:23;7.60;99.90
57552;DHT22;43379;48.160;14.036;2023-04-15T07:27:49;7.60;99.90
57552;DHT22;43379;48.160;14.036;2023-04-15T07:30:15;7.60;99.90
57552;DHT22;43379;48.160;14.036;2023-04-15T07:32:41;7.60;99.90
57552;DHT22;43379;48.160;14.036;2023-04-15T07:35:07;7.60;99.90
57552;DHT22;43379;48.160;14.036;2023-04-15T07:37:34;7.60;99.90
57552;DHT22;43379;48.160;14.036;2023-04-15T07:40:00;7.60;99.90
57552;DHT22;43379;48.160;14.036;2023-04-15T07:42:25;7.60;99.90
57552;DHT22;43379;48.160;14.036;2023-04-15T07:44:51;7.60;99.90
57552;DHT22;43379;48.160;14.036;2023-04-15T07:47:17;7.60;99.90
57552;DHT22;43379;48.160;14.036;2023-04-15T07:49:42;7.60;99.90
57552;DHT22;43379;48.160;14.036;2023-04-15T07:52:08;7.60;99.90
57552;DHT22;43379;48.160;14.036;2023-04-15T07:54:34;7.60;99.90
57552;DHT22;43379;48.160;14.036;2023-04-15T07:57:00;7.60;99.90
57552;DHT22;43379;48.160;14.036;2023-04-15T07:59:25;7.70;99.90
57552;DHT22;43379;48.160;14.036;2023-04-15T08:01:54;7.70;99.90
57552;DHT22;43379;48.160;14.036;2023-04-15T08:04:20;7.70;99.90
57552;DHT22;43379;48.160;14.036;2023-04-15T08:06:45;7.70;99.90
57552;DHT22;43379;48.160;14.036;2023-04-15T08:09:12;7.70;99.90
57552;DHT22;43379;48.160;14.036;2023-04-15T08:11:38;7.80;99.90
57552;DHT22;43379;48.160;14.036;2023-04-15T08:14:03;7.80;99.90
57552;DHT22;43379;48.160;14.036;2023-04-15T08:16:29;7.80;99.90
57552;DHT22;43379;48.160;14.036;2023-04-15T08:18:55;7.80;99.90
57552;DHT22;43379;48.160;14.036;2023-04-15T08:21:22;7.80;99.90
57552;DHT22;43379;48.160;14.036;2023-04-15T08:23:48;7.80;99.90
57552;DHT22;43379;48.160;14.036;2023-04-15T08:26:15;7.80;99.90
57552;DHT22;43379;48.160;14.036;2023-04-15T08:28:42;7.80;99.90
57552;DHT22;43379;48.160;14.036;2023-04-15T08:31:08;7.80;99.90
57552;DHT22;43379;48.160;14.036;2023-04-15T08:33:34;7.80;99.90
57552;DHT22;43379;48.160;14.036;2023-04-15T08:36:00;7.80;99.90
57552;DHT22;43379;48.160;14.036;2023-04-15T08:38:25;7.90;99.90
57552;DHT22;43379;48.160;14.036;2023-04-15T08:40:51;7.90;99.90
57552;DHT22;43379;48.160;14.036;2023-04-15T08:43:26;7.80;99.90
57552;DHT22;43379;48.160;14.036;2023-04-15T08:45:53;7.80;99.90
57552;DHT22;43379;48.160;14.036;2023-04-15T08:48:20;7.90;99.90
57552;DHT22;43379;48.160;14.036;2023-04-15T08:50:47;7.90;99.90
57552;DHT22;43379;48.160;14.036;2023-04-15T08:53:13;7.80;99.90
57552;DHT22;43379;48.160;14.036;2023-04-15T08:55:44;7.90;99.90
57552;DHT22;43379;48.160;14.036;2023-04-15T08:58:12;7.80;99.90
57552;DHT22;43379;48.160;14.036;2023-04-15T09:00:39;7.70;99.90
57552;DHT22;43379;48.160;14.036;2023-04-15T09:03:05;7.70;99.90
57552;DHT22;43379;48.160;14.036;2023-04-15T09:05:34;7.80;99.90
57552;DHT22;43379;48.160;14.036;2023-04-15T09:08:00;7.80;99.90
57552;DHT22;43379;48.160;14.036;2023-04-15T09:10:27;7.80;99.90
57552;DHT22;43379;48.160;14.036;2023-04-15T09:12:54;7.80;99.90
57552;DHT22;43379;48.160;14.036;2023-04-15T09:15:20;7.80;99.90
57552;DHT22;43379;48.160;14.036;2023-04-15T09:17:47;7.80;99.90
57552;DHT22;43379;48.160;14.036;2023-04-15T09:20:15;7.80;99.90
57552;DHT22;43379;48.160;14.036;2023-04-15T09:22:43;7.80;99.90
57552;DHT22;43379;48.160;14.036;2023-04-15T09:27:53;7.80;99.90
57552;DHT22;43379;48.160;14.036;2023-04-15T09:30:18;7.80;99.90
57552;DHT22;43379;48.160;14.036;2023-04-15T09:32:55;7.80;99.90
57552;DHT22;43379;48.160;14.036;2023-04-15T09:35:22;7.90;99.90
57552;DHT22;43379;48.160;14.036;2023-04-15T09:37:48;7.90;99.90
57552;DHT22;43379;48.160;14.036;2023-04-15T09:40:14;7.80;99.90
57552;DHT22;43379;48.160;14.036;2023-04-15T09:42:55;7.80;99.90
57552;DHT22;43379;48.160;14.036;2023-04-15T09:45:21;7.80;99.90
57552;DHT22;43379;48.160;14.036;2023-04-15T09:47:47;7.70;99.90
57552;DHT22;43379;48.160;14.036;2023-04-15T09:50:13;7.80;99.90
57552;DHT22;43379;48.160;14.036;2023-04-15T09:52:43;7.80;99.90
57552;DHT22;43379;48.160;14.036;2023-04-15T09:55:10;7.80;99.90
57552;DHT22;43379;48.160;14.036;2023-04-15T09:57:37;7.90;99.90
57552;DHT22;43379;48.160;14.036;2023-04-15T10:00:04;7.90;99.90
57552;DHT22;43379;48.160;14.036;2023-04-15T10:02:31;7.90;99.90
57552;DHT22;43379;48.160;14.036;2023-04-15T10:04:57;8.00;99.90
57552;DHT22;43379;48.160;14.036;2023-04-15T10:07:24;8.00;99.90
57552;DHT22;43379;48.160;14.036;2023-04-15T10:09:50;7.90;99.90
57552;DHT22;43379;48.160;14.036;2023-04-15T10:12:18;7.90;99.90
57552;DHT22;43379;48.160;14.036;2023-04-15T10:14:48;8.00;99.90
57552;DHT22;43379;48.160;14.036;2023-04-15T10:17:17;8.00;99.90
57552;DHT22;43379;48.160;14.036;2023-04-15T10:19:46;8.10;99.90
57552;DHT22;43379;48.160;14.036;2023-04-15T10:22:13;8.10;99.90
57552;DHT22;43379;48.160;14.036;2023-04-15T10:24:39;8.10;99.90
57552;DHT22;43379;48.160;14.036;2023-04-15T10:27:05;8.00;99.90
57552;DHT22;43379;48.160;14.036;2023-04-15T10:29:31;8.00;99.90
57552;DHT22;43379;48.160;14.036;2023-04-15T10:31:58;8.00;99.90
57552;DHT22;43379;48.160;14.036;2023-04-15T10:34:25;8.10;99.90
57552;DHT22;43379;48.160;14.036;2023-04-15T10:36:54;8.10;99.90
57552;DHT22;43379;48.160;14.036;2023-04-15T10:42:07;8.20;99.90
57552;DHT22;43379;48.160;14.036;2023-04-15T10:44:33;8.20;99.90
57552;DHT22;43379;48.160;14.036;2023-04-15T10:47:06;8.20;99.90
57552;DHT22;43379;48.160;14.036;2023-04-15T10:49:51;8.20;99.90
57552;DHT22;43379;48.160;14.036;2023-04-15T10:52:25;8.30;99.90
57552;DHT22;43379;48.160;14.036;2023-04-15T10:55:17;8.20;99.90
57552;DHT22;43379;48.160;14.036;2023-04-15T10:57:44;8.20;99.90
57552;DHT22;43379;48.160;14.036;2023-04-15T11:00:14;8.20;99.90
57552;DHT22;43379;48.160;14.036;2023-04-15T11:02:42;8.20;99.90
57552;DHT22;43379;48.160;14.036;2023-04-15T11:05:10;8.20;99.90
57552;DHT22;43379;48.160;14.036;2023-04-15T11:12:42;8.30;99.90
57552;DHT22;43379;48.160;14.036;2023-04-15T11:17:58;8.40;99.90
57552;DHT22;43379;48.160;14.036;2023-04-15T11:20:25;8.50;99.90
57552;DHT22;43379;48.160;14.036;2023-04-15T11:22:52;8.50;99.90
57552;DHT22;43379;48.160;14.036;2023-04-15T11:25:23;8.50;99.90
57552;DHT22;43379;48.160;14.036;2023-04-15T11:27:49;8.50;99.90
57552;DHT22;43379;48.160;14.036;2023-04-15T11:30:23;8.50;99.90
57552;DHT22;43379;48.160;14.036;2023-04-15T11:32:50;8.40;99.90
57552;DHT22;43379;48.160;14.036;2023-04-15T11:35:17;8.40;99.90
57552;DHT22;43379;48.160;14.036;2023-04-15T11:37:47;8.50;99.90
57552;DHT22;43379;48.160;14.036;2023-04-15T11:40:14;8.50;99.90
57552;DHT22;43379;48.160;14.036;2023-04-15T11:42:44;8.60;99.90
57552;DHT22;43379;48.160;14.036;2023-04-15T11:45:13;8.60;99.90
57552;DHT22;43379;48.160;14.036;2023-04-15T11:47:40;8.60;99.90
57552;DHT22;43379;48.160;14.036;2023-04-15T11:50:26;8.70;99.90
57552;DHT22;43379;48.160;14.036;2023-04-15T11:52:59;8.80;99.90
57552;DHT22;43379;48.160;14.036;2023-04-15T11:55:26;8.80;99.90
57552;DHT22;43379;48.160;14.036;2023-04-15T11:58:11;8.90;99.90
57552;DHT22;43379;48.160;14.036;2023-04-15T12:00:38;8.90;99.90
57552;DHT22;43379;48.160;14.036;2023-04-15T12:06:18;8.80;99.90
57552;DHT22;43379;48.160;14.036;2023-04-15T12:14:12;8.80;99.90
57552;DHT22;43379;48.160;14.036;2023-04-15T12:16:45;8.80;99.90
57552;DHT22;43379;48.160;14.036;2023-04-15T12:19:13;8.80;99.90
57552;DHT22;43379;48.160;14.036;2023-04-15T12:21:42;8.90;99.90
57552;DHT22;43379;48.160;14.036;2023-04-15T12:24:10;8.80;99.90
57552;DHT22;43379;48.160;14.036;2023-04-15T12:26:44;8.80;99.90
57552;DHT22;43379;48.160;14.036;2023-04-15T12:29:11;8.80;99.90
57552;DHT22;43379;48.160;14.036;2023-04-15T12:31:53;8.80;99.90
57552;DHT22;43379;48.160;14.036;2023-04-15T12:34:43;8.90;99.90
57552;DHT22;43379;48.160;14.036;2023-04-15T12:37:10;8.90;99.90
57552;DHT22;43379;48.160;14.036;2023-04-15T12:39:39;8.90;99.90
57552;DHT22;43379;48.160;14.036;2023-04-15T12:42:06;8.90;99.90
57552;DHT22;43379;48.160;14.036;2023-04-15T12:44:32;8.90;99.90
57552;DHT22;43379;48.160;14.036;2023-04-15T12:46:58;8.90;99.90
57552;DHT22;43379;48.160;14.036;2023-04-15T12:49:24;9.00;99.90
57552;DHT22;43379;48.160;14.036;2023-04-15T12:51:53;8.90;99.90
57552;DHT22;43379;48.160;14.036;2023-04-15T12:54:20;8.90;99.90
57552;DHT22;43379;48.160;14.036;2023-04-15T12:56:46;8.90;99.90
57552;DHT22;43379;48.160;14.036;2023-04-15T12:59:14;8.90;99.90
57552;DHT22;43379;48.160;14.036;2023-04-15T13:01:40;8.90;99.90
57552;DHT22;43379;48.160;14.036;2023-04-15T13:04:06;8.80;99.90
57552;DHT22;43379;48.160;14.036;2023-04-15T13:06:32;8.90;99.90
57552;DHT22;43379;48.160;14.036;2023-04-15T13:09:01;8.90;99.90
57552;DHT22;43379;48.160;14.036;2023-04-15T13:11:28;8.90;99.90
57552;DHT22;43379;48.160;14.036;2023-04-15T13:13:59;8.90;99.90
57552;DHT22;43379;48.160;14.036;2023-04-15T13:16:25;8.90;99.90
57552;DHT22;43379;48.160;14.036;2023-04-15T13:18:51;8.80;99.90
57552;DHT22;43379;48.160;14.036;2023-04-15T13:21:18;8.90;99.90
57552;DHT22;43379;48.160;14.036;2023-04-15T13:23:43;8.90;99.90
57552;DHT22;43379;48.160;14.036;2023-04-15T13:26:09;8.90;99.90
57552;DHT22;43379;48.160;14.036;2023-04-15T13:28:35;8.90;99.90
57552;DHT22;43379;48.160;14.036;2023-04-15T13:31:01;8.90;99.90
57552;DHT22;43379;48.160;14.036;2023-04-15T13:33:27;8.80;99.90
57552;DHT22;43379;48.160;14.036;2023-04-15T13:35:53;8.80;99.90
57552;DHT22;43379;48.160;14.036;2023-04-15T13:38:19;8.80;99.90
57552;DHT22;43379;48.160;14.036;2023-04-15T13:40:45;8.90;99.90
57552;DHT22;43379;48.160;14.036;2023-04-15T13:43:11;8.90;99.90
57552;DHT22;43379;48.160;14.036;2023-04-15T13:45:36;9.00;99.90
57552;DHT22;43379;48.160;14.036;2023-04-15T13:48:02;8.90;99.90
57552;DHT22;43379;48.160;14.036;2023-04-15T13:50:28;8.90;99.90
57552;DHT22;43379;48.160;14.036;2023-04-15T13:52:54;8.90;99.90
57552;DHT22;43379;48.160;14.036;2023-04-15T13:55:19;8.90;99.90
57552;DHT22;43379;48.160;14.036;2023-04-15T13:57:45;8.80;99.90
57552;DHT22;43379;48.160;14.036;2023-04-15T14:00:11;8.80;99.90
57552;DHT22;43379;48.160;14.036;2023-04-15T14:02:39;8.80;99.90
57552;DHT22;43379;48.160;14.036;2023-04-15T14:05:05;8.80;99.90
57552;DHT22;43379;48.160;14.036;2023-04-15T14:07:30;8.70;99.90
57552;DHT22;43379;48.160;14.036;2023-04-15T14:09:56;8.80;99.90
57552;DHT22;43379;48.160;14.036;2023-04-15T14:12:22;8.70;99.90
57552;DHT22;43379;48.160;14.036;2023-04-15T14:14:47;8.70;99.90
57552;DHT22;43379;48.160;14.036;2023-04-15T14:17:13;8.70;99.90
57552;DHT22;43379;48.160;14.036;2023-04-15T14:19:39;8.70;99.90
57552;DHT22;43379;48.160;14.036;2023-04-15T14:22:04;8.70;99.90
57552;DHT22;43379;48.160;14.036;2023-04-15T14:24:30;8.70;99.90
57552;DHT22;43379;48.160;14.036;2023-04-15T14:26:57;8.70;99.90
57552;DHT22;43379;48.160;14.036;2023-04-15T14:29:23;8.80;99.90
57552;DHT22;43379;48.160;14.036;2023-04-15T14:31:48;8.80;99.90
57552;DHT22;43379;48.160;14.036;2023-04-15T14:34:15;8.90;99.90
57552;DHT22;43379;48.160;14.036;2023-04-15T14:36:41;8.80;99.90
57552;DHT22;43379;48.160;14.036;2023-04-15T14:39:07;8.80;99.90
57552;DHT22;43379;48.160;14.036;2023-04-15T14:41:34;8.80;99.90
57552;DHT22;43379;48.160;14.036;2023-04-15T14:43:59;8.80;99.90
57552;DHT22;43379;48.160;14.036;2023-04-15T14:46:25;8.90;99.90
57552;DHT22;43379;48.160;14.036;2023-04-15T14:48:51;8.90;99.90
57552;DHT22;43379;48.160;14.036;2023-04-15T14:51:17;8.90;99.90
57552;DHT22;43379;48.160;14.036;2023-04-15T14:53:44;8.80;99.90
57552;DHT22;43379;48.160;14.036;2023-04-15T14:56:10;8.80;99.90
57552;DHT22;43379;48.160;14.036;2023-04-15T14:58:36;8.80;99.90
57552;DHT22;43379;48.160;14.036;2023-04-15T15:01:05;8.90;99.90
57552;DHT22;43379;48.160;14.036;2023-04-15T15:03:30;8.80;99.90
57552;DHT22;43379;48.160;14.036;2023-04-15T15:05:56;8.80;99.90
57552;DHT22;43379;48.160;14.036;2023-04-15T15:08:22;8.90;99.90
57552;DHT22;43379;48.160;14.036;2023-04-15T15:10:48;8.90;99.90
57552;DHT22;43379;48.160;14.036;2023-04-15T15:13:14;8.90;99.90
57552;DHT22;43379;48.160;14.036;2023-04-15T15:15:40;8.90;99.90
57552;DHT22;43379;48.160;14.036;2023-04-15T15:18:06;8.90;99.90
57552;DHT22;43379;48.160;14.036;2023-04-15T15:20:32;8.80;99.90
57552;DHT22;43379;48.160;14.036;2023-04-15T15:22:59;8.80;99.90
57552;DHT22;43379;48.160;14.036;2023-04-15T15:25:25;8.80;99.90
57552;DHT22;43379;48.160;14.036;2023-04-15T15:27:50;8.70;99.90
57552;DHT22;43379;48.160;14.036;2023-04-15T15:30:16;8.70;99.90
57552;DHT22;43379;48.160;14.036;2023-04-15T15:32:42;8.80;99.90
57552;DHT22;43379;48.160;14.036;2023-04-15T15:35:09;8.70;99.90
57552;DHT22;43379;48.160;14.036;2023-04-15T15:37:35;8.70;99.90
57552;DHT22;43379;48.160;14.036;2023-04-15T15:40:03;8.70;99.90
57552;DHT22;43379;48.160;14.036;2023-04-15T15:42:32;8.70;99.90
57552;DHT22;43379;48.160;14.036;2023-04-15T15:44:59;8.70;99.90
57552;DHT22;43379;48.160;14.036;2023-04-15T15:47:25;8.80;99.90
57552;DHT22;43379;48.160;14.036;2023-04-15T15:49:53;8.70;99.90
57552;DHT22;43379;48.160;14.036;2023-04-15T15:52:19;8.70;99.90